sensor_id;sensor_type;location;lat;lon;timestamp;temperature;humidity
32614;DHT22;19031;51.400;6.770;2022-12-07T00:03:35;5.60;99.90
32614;DHT22;19031;51.400;6.770;2022-12-07T00:06:02;5.60;99.90
32614;DHT22;19031;51.400;6.770;2022-12-07T00:08:31;5.60;99.90
32614;DHT22;19031;51.400;6.770;2022-12-07T00:11:03;5.60;99.90
32614;DHT22;19031;51.400;6.770;2022-12-07T00:13:32;5.60;99.90
32614;DHT22;19031;51.400;6.770;2022-12-07T00:16:02;5.70;99.90
32614;DHT22;19031;51.400;6.770;2022-12-07T00:18:28;5.60;99.90
32614;DHT22;19031;51.400;6.770;2022-12-07T00:20:58;5.60;99.90
32614;DHT22;19031;51.400;6.770;2022-12-07T00:23:24;5.50;99.90
32614;DHT22;19031;51.400;6.770;2022-12-07T00:25:49;5.70;99.90
32614;DHT22;19031;51.400;6.770;2022-12-07T00:28:15;5.70;99.90
32614;DHT22;19031;51.400;6.770;2022-12-07T00:30:40;5.70;99.90
32614;DHT22;19031;51.400;6.770;2022-12-07T00:33:06;5.60;99.90
32614;DHT22;19031;51.400;6.770;2022-12-07T00:35:31;5.50;99.90
32614;DHT22;19031;51.400;6.770;2022-12-07T00:38:06;5.60;99.90
32614;DHT22;19031;51.400;6.770;2022-12-07T00:40:33;5.70;99.90
32614;DHT22;19031;51.400;6.770;2022-12-07T00:42:58;5.70;99.90
32614;DHT22;19031;51.400;6.770;2022-12-07T00:45:24;5.70;99.90
32614;DHT22;19031;51.400;6.770;2022-12-07T00:47:49;5.70;99.90
32614;DHT22;19031;51.400;6.770;2022-12-07T00:50:15;5.60;99.90
32614;DHT22;19031;51.400;6.770;2022-12-07T00:52:40;5.70;99.90
32614;DHT22;19031;51.400;6.770;2022-12-07T00:55:06;5.80;99.90
32614;DHT22;19031;51.400;6.770;2022-12-07T00:57:31;5.70;99.90
32614;DHT22;19031;51.400;6.770;2022-12-07T00:59:57;5.70;99.90
32614;DHT22;19031;51.400;6.770;2022-12-07T01:02:23;5.60;99.90
32614;DHT22;19031;51.400;6.770;2022-12-07T01:04:49;5.60;99.90
32614;DHT22;19031;51.400;6.770;2022-12-07T01:07:14;5.60;99.90
32614;DHT22;19031;51.400;6.770;2022-12-07T01:09:40;5.70;99.90
32614;DHT22;19031;51.400;6.770;2022-12-07T01:12:05;5.60;99.90
32614;DHT22;19031;51.400;6.770;2022-12-07T01:14:31;5.60;99.90
32614;DHT22;19031;51.400;6.770;2022-12-07T01:16:56;5.50;99.90
32614;DHT22;19031;51.400;6.770;2022-12-07T01:19:22;5.50;99.90
32614;DHT22;19031;51.400;6.770;2022-12-07T01:21:47;5.60;99.90
32614;DHT22;19031;51.400;6.770;2022-12-07T01:24:13;5.60;99.90
32614;DHT22;19031;51.400;6.770;2022-12-07T01:26:38;6.00;99.90
32614;DHT22;19031;51.400;6.770;2022-12-07T01:29:04;5.80;99.90
32614;DHT22;19031;51.400;6.770;2022-12-07T01:31:29;5.70;99.90
32614;DHT22;19031;51.400;6.770;2022-12-07T01:33:56;5.60;99.90
32614;DHT22;19031;51.400;6.770;2022-12-07T01:38:48;5.50;99.90
32614;DHT22;19031;51.400;6.770;2022-12-07T01:41:14;5.40;99.90
32614;DHT22;19031;51.400;6.770;2022-12-07T01:46:24;5.50;99.90
32614;DHT22;19031;51.400;6.770;2022-12-07T01:48:49;5.50;99.90
32614;DHT22;19031;51.400;6.770;2022-12-07T01:51:15;5.50;99.90
32614;DHT22;19031;51.400;6.770;2022-12-07T01:53:42;5.50;99.90
32614;DHT22;19031;51.400;6.770;2022-12-07T01:56:08;5.50;99.90
32614;DHT22;19031;51.400;6.770;2022-12-07T01:58:35;5.40;99.90
32614;DHT22;19031;51.400;6.770;2022-12-07T02:01:01;5.40;99.90
32614;DHT22;19031;51.400;6.770;2022-12-07T02:03:44;5.40;99.90
32614;DHT22;19031;51.400;6.770;2022-12-07T02:06:11;5.40;99.90
32614;DHT22;19031;51.400;6.770;2022-12-07T02:08:37;5.30;99.90
32614;DHT22;19031;51.400;6.770;2022-12-07T02:11:03;5.30;99.90
32614;DHT22;19031;51.400;6.770;2022-12-07T02:13:33;5.20;99.90
32614;DHT22;19031;51.400;6.770;2022-12-07T02:18:31;5.20;99.90
32614;DHT22;19031;51.400;6.770;2022-12-07T02:21:12;5.20;99.90
32614;DHT22;19031;51.400;6.770;2022-12-07T03:02:25;5.00;99.90
32614;DHT22;19031;51.400;6.770;2022-12-07T03:07:25;4.90;99.90
32614;DHT22;19031;51.400;6.770;2022-12-07T03:10:14;4.80;99.90
32614;DHT22;19031;51.400;6.770;2022-12-07T03:12:44;4.90;99.90
32614;DHT22;19031;51.400;6.770;2022-12-07T03:15:22;4.80;99.90
32614;DHT22;19031;51.400;6.770;2022-12-07T03:17:50;4.80;99.90
32614;DHT22;19031;51.400;6.770;2022-12-07T03:20:17;4.80;99.90
32614;DHT22;19031;51.400;6.770;2022-12-07T03:22:44;4.70;99.90
32614;DHT22;19031;51.400;6.770;2022-12-07T03:25:11;4.70;99.90
32614;DHT22;19031;51.400;6.770;2022-12-07T03:28:01;4.70;99.90
32614;DHT22;19031;51.400;6.770;2022-12-07T03:31:08;4.70;99.90
32614;DHT22;19031;51.400;6.770;2022-12-07T03:33:24;4.60;99.90
32614;DHT22;19031;51.400;6.770;2022-12-07T03:35:55;4.50;99.90
32614;DHT22;19031;51.400;6.770;2022-12-07T03:38:30;4.50;99.90
32614;DHT22;19031;51.400;6.770;2022-12-07T03:41:01;4.50;99.90
32614;DHT22;19031;51.400;6.770;2022-12-07T03:43:28;4.50;99.90
32614;DHT22;19031;51.400;6.770;2022-12-07T03:48:21;4.40;99.90
32614;DHT22;19031;51.400;6.770;2022-12-07T03:50:52;4.30;99.90
32614;DHT22;19031;51.400;6.770;2022-12-07T03:53:22;4.40;99.90
32614;DHT22;19031;51.400;6.770;2022-12-07T03:55:49;4.50;99.90
32614;DHT22;19031;51.400;6.770;2022-12-07T03:58:18;4.30;99.90
32614;DHT22;19031;51.400;6.770;2022-12-07T04:00:44;4.40;99.90
32614;DHT22;19031;51.400;6.770;2022-12-07T04:03:10;4.50;99.90
32614;DHT22;19031;51.400;6.770;2022-12-07T04:05:36;4.50;99.90
32614;DHT22;19031;51.400;6.770;2022-12-07T04:08:02;4.50;99.90
32614;DHT22;19031;51.400;6.770;2022-12-07T04:10:27;4.50;99.90
32614;DHT22;19031;51.400;6.770;2022-12-07T04:12:53;4.50;99.90
32614;DHT22;19031;51.400;6.770;2022-12-07T04:15:18;4.50;99.90
32614;DHT22;19031;51.400;6.770;2022-12-07T04:17:44;4.50;99.90
32614;DHT22;19031;51.400;6.770;2022-12-07T04:20:09;4.50;99.90
32614;DHT22;19031;51.400;6.770;2022-12-07T04:22:35;4.50;99.90
32614;DHT22;19031;51.400;6.770;2022-12-07T04:25:00;4.50;99.90
32614;DHT22;19031;51.400;6.770;2022-12-07T04:27:26;4.60;99.90
32614;DHT22;19031;51.400;6.770;2022-12-07T04:29:52;4.50;99.90
32614;DHT22;19031;51.400;6.770;2022-12-07T04:32:18;4.50;99.90
32614;DHT22;19031;51.400;6.770;2022-12-07T04:34:44;4.50;99.90
32614;DHT22;19031;51.400;6.770;2022-12-07T04:37:09;4.50;99.90
32614;DHT22;19031;51.400;6.770;2022-12-07T04:39:35;4.40;99.90
32614;DHT22;19031;51.400;6.770;2022-12-07T04:42:00;4.40;99.90
32614;DHT22;19031;51.400;6.770;2022-12-07T04:44:26;4.40;99.90
32614;DHT22;19031;51.400;6.770;2022-12-07T04:46:52;4.40;99.90
32614;DHT22;19031;51.400;6.770;2022-12-07T04:49:18;4.40;99.90
32614;DHT22;19031;51.400;6.770;2022-12-07T04:51:44;4.40;99.90
32614;DHT22;19031;51.400;6.770;2022-12-07T04:54:10;4.40;99.90
32614;DHT22;19031;51.400;6.770;2022-12-07T04:56:36;4.40;99.90
32614;DHT22;19031;51.400;6.770;2022-12-07T04:59:02;4.50;99.90
32614;DHT22;19031;51.400;6.770;2022-12-07T05:01:27;4.40;99.90
32614;DHT22;19031;51.400;6.770;2022-12-07T05:03:53;4.40;99.90
32614;DHT22;19031;51.400;6.770;2022-12-07T05:06:18;4.40;99.90
32614;DHT22;19031;51.400;6.770;2022-12-07T05:08:44;4.40;99.90
32614;DHT22;19031;51.400;6.770;2022-12-07T05:11:10;4.40;99.90
32614;DHT22;19031;51.400;6.770;2022-12-07T05:13:56;4.40;99.90
32614;DHT22;19031;51.400;6.770;2022-12-07T05:16:21;4.40;99.90
32614;DHT22;19031;51.400;6.770;2022-12-07T05:18:46;4.40;99.90
32614;DHT22;19031;51.400;6.770;2022-12-07T05:21:12;4.40;99.90
32614;DHT22;19031;51.400;6.770;2022-12-07T05:23:37;4.30;99.90
32614;DHT22;19031;51.400;6.770;2022-12-07T05:26:03;4.40;99.90
32614;DHT22;19031;51.400;6.770;2022-12-07T05:28:28;4.50;99.90
32614;DHT22;19031;51.400;6.770;2022-12-07T05:30:54;4.50;99.90
32614;DHT22;19031;51.400;6.770;2022-12-07T05:33:19;4.60;99.90
32614;DHT22;19031;51.400;6.770;2022-12-07T05:35:45;4.50;99.90
32614;DHT22;19031;51.400;6.770;2022-12-07T05:38:10;4.50;99.90
32614;DHT22;19031;51.400;6.770;2022-12-07T05:40:36;4.50;99.90
32614;DHT22;19031;51.400;6.770;2022-12-07T05:43:02;4.40;99.90
32614;DHT22;19031;51.400;6.770;2022-12-07T05:45:27;4.40;99.90
32614;DHT22;19031;51.400;6.770;2022-12-07T05:47:53;4.40;99.90
32614;DHT22;19031;51.400;6.770;2022-12-07T05:50:18;4.40;99.90
32614;DHT22;19031;51.400;6.770;2022-12-07T05:52:44;4.50;99.90
32614;DHT22;19031;51.400;6.770;2022-12-07T05:55:09;4.50;99.90
32614;DHT22;19031;51.400;6.770;2022-12-07T05:57:35;4.60;99.90
32614;DHT22;19031;51.400;6.770;2022-12-07T06:00:00;4.50;99.90
32614;DHT22;19031;51.400;6.770;2022-12-07T06:02:26;4.60;99.90
32614;DHT22;19031;51.400;6.770;2022-12-07T06:04:51;4.60;99.90
32614;DHT22;19031;51.400;6.770;2022-12-07T06:07:17;4.50;99.90
32614;DHT22;19031;51.400;6.770;2022-12-07T06:09:42;4.50;99.90
32614;DHT22;19031;51.400;6.770;2022-12-07T06:12:11;4.50;99.90
32614;DHT22;19031;51.400;6.770;2022-12-07T06:15:03;4.50;99.90
32614;DHT22;19031;51.400;6.770;2022-12-07T06:17:28;4.50;99.90
32614;DHT22;19031;51.400;6.770;2022-12-07T06:19:54;4.50;99.90
32614;DHT22;19031;51.400;6.770;2022-12-07T06:22:19;4.50;99.90
32614;DHT22;19031;51.400;6.770;2022-12-07T06:24:45;4.50;99.90
32614;DHT22;19031;51.400;6.770;2022-12-07T06:27:10;4.50;99.90
32614;DHT22;19031;51.400;6.770;2022-12-07T06:29:36;4.40;99.90
32614;DHT22;19031;51.400;6.770;2022-12-07T06:32:02;4.50;99.90
32614;DHT22;19031;51.400;6.770;2022-12-07T06:34:27;4.40;99.90
32614;DHT22;19031;51.400;6.770;2022-12-07T06:36:53;4.40;99.90
32614;DHT22;19031;51.400;6.770;2022-12-07T06:39:21;4.40;99.90
32614;DHT22;19031;51.400;6.770;2022-12-07T06:41:47;4.40;99.90
32614;DHT22;19031;51.400;6.770;2022-12-07T06:44:12;4.40;99.90
32614;DHT22;19031;51.400;6.770;2022-12-07T06:46:38;4.40;99.90
32614;DHT22;19031;51.400;6.770;2022-12-07T06:49:04;4.40;99.90
32614;DHT22;19031;51.400;6.770;2022-12-07T06:51:30;4.40;99.90
32614;DHT22;19031;51.400;6.770;2022-12-07T06:53:56;4.40;99.90
32614;DHT22;19031;51.400;6.770;2022-12-07T06:56:21;4.40;99.90
32614;DHT22;19031;51.400;6.770;2022-12-07T06:58:48;4.40;99.90
32614;DHT22;19031;51.400;6.770;2022-12-07T07:01:15;4.50;99.90
32614;DHT22;19031;51.400;6.770;2022-12-07T07:03:41;4.40;99.90
32614;DHT22;19031;51.400;6.770;2022-12-07T07:06:07;4.40;99.90
32614;DHT22;19031;51.400;6.770;2022-12-07T07:08:35;4.50;99.90
32614;DHT22;19031;51.400;6.770;2022-12-07T07:11:01;4.50;99.90
32614;DHT22;19031;51.400;6.770;2022-12-07T07:13:26;4.50;99.90
32614;DHT22;19031;51.400;6.770;2022-12-07T07:15:52;4.40;99.90
32614;DHT22;19031;51.400;6.770;2022-12-07T07:18:20;4.50;99.90
32614;DHT22;19031;51.400;6.770;2022-12-07T07:20:45;4.50;99.90
32614;DHT22;19031;51.400;6.770;2022-12-07T07:23:11;4.40;99.90
32614;DHT22;19031;51.400;6.770;2022-12-07T07:25:36;4.40;99.90
32614;DHT22;19031;51.400;6.770;2022-12-07T07:28:02;4.40;99.90
32614;DHT22;19031;51.400;6.770;2022-12-07T07:30:28;4.50;99.90
32614;DHT22;19031;51.400;6.770;2022-12-07T07:32:57;4.40;99.90
32614;DHT22;19031;51.400;6.770;2022-12-07T07:35:25;4.30;99.90
32614;DHT22;19031;51.400;6.770;2022-12-07T07:37:51;4.30;99.90
32614;DHT22;19031;51.400;6.770;2022-12-07T07:40:16;4.20;99.90
32614;DHT22;19031;51.400;6.770;2022-12-07T07:42:42;4.30;99.90
32614;DHT22;19031;51.400;6.770;2022-12-07T07:45:08;4.30;99.90
32614;DHT22;19031;51.400;6.770;2022-12-07T07:47:33;4.30;99.90
32614;DHT22;19031;51.400;6.770;2022-12-07T07:49:59;4.30;99.90
32614;DHT22;19031;51.400;6.770;2022-12-07T07:52:24;4.30;99.90
32614;DHT22;19031;51.400;6.770;2022-12-07T07:54:50;4.30;99.90
32614;DHT22;19031;51.400;6.770;2022-12-07T07:57:16;4.30;99.90
32614;DHT22;19031;51.400;6.770;2022-12-07T07:59:42;4.20;99.90
32614;DHT22;19031;51.400;6.770;2022-12-07T08:02:10;4.10;99.90
32614;DHT22;19031;51.400;6.770;2022-12-07T08:04:38;4.10;99.90
32614;DHT22;19031;51.400;6.770;2022-12-07T08:07:04;4.10;99.90
32614;DHT22;19031;51.400;6.770;2022-12-07T08:09:29;4.10;99.90
32614;DHT22;19031;51.400;6.770;2022-12-07T08:11:55;4.10;99.90
32614;DHT22;19031;51.400;6.770;2022-12-07T08:14:20;4.10;99.90
32614;DHT22;19031;51.400;6.770;2022-12-07T08:16:46;4.10;99.90
32614;DHT22;19031;51.400;6.770;2022-12-07T08:19:11;4.10;99.90
32614;DHT22;19031;51.400;6.770;2022-12-07T08:21:37;4.10;99.90
32614;DHT22;19031;51.400;6.770;2022-12-07T08:24:02;4.10;99.90
32614;DHT22;19031;51.400;6.770;2022-12-07T08:26:28;4.10;99.90
32614;DHT22;19031;51.400;6.770;2022-12-07T08:28:54;4.10;99.90
32614;DHT22;19031;51.400;6.770;2022-12-07T08:31:19;4.00;99.90
32614;DHT22;19031;51.400;6.770;2022-12-07T08:33:46;4.00;99.90
32614;DHT22;19031;51.400;6.770;2022-12-07T08:36:12;4.10;99.90
32614;DHT22;19031;51.400;6.770;2022-12-07T08:38:39;4.10;99.90
32614;DHT22;19031;51.400;6.770;2022-12-07T08:41:05;4.00;99.90
32614;DHT22;19031;51.400;6.770;2022-12-07T08:43:30;4.00;99.90
32614;DHT22;19031;51.400;6.770;2022-12-07T08:48:21;3.90;99.90
32614;DHT22;19031;51.400;6.770;2022-12-07T08:50:49;4.00;99.90
32614;DHT22;19031;51.400;6.770;2022-12-07T08:53:15;4.00;99.90
32614;DHT22;19031;51.400;6.770;2022-12-07T08:55:41;4.10;99.90
32614;DHT22;19031;51.400;6.770;2022-12-07T08:58:06;4.10;99.90
32614;DHT22;19031;51.400;6.770;2022-12-07T09:00:32;4.20;99.90
32614;DHT22;19031;51.400;6.770;2022-12-07T09:02:57;4.20;99.90
32614;DHT22;19031;51.400;6.770;2022-12-07T09:05:23;4.30;99.90
32614;DHT22;19031;51.400;6.770;2022-12-07T09:07:49;4.20;99.90
32614;DHT22;19031;51.400;6.770;2022-12-07T09:10:16;4.20;99.90
32614;DHT22;19031;51.400;6.770;2022-12-07T09:12:41;4.30;99.90
32614;DHT22;19031;51.400;6.770;2022-12-07T09:15:07;4.40;99.90
32614;DHT22;19031;51.400;6.770;2022-12-07T09:17:33;4.40;99.90
32614;DHT22;19031;51.400;6.770;2022-12-07T09:19:59;4.60;99.90
32614;DHT22;19031;51.400;6.770;2022-12-07T09:22:28;4.70;99.90
32614;DHT22;19031;51.400;6.770;2022-12-07T09:24:53;4.80;99.90
32614;DHT22;19031;51.400;6.770;2022-12-07T09:27:19;4.90;99.90
32614;DHT22;19031;51.400;6.770;2022-12-07T09:29:44;5.00;99.90
32614;DHT22;19031;51.400;6.770;2022-12-07T09:32:10;5.00;99.90
32614;DHT22;19031;51.400;6.770;2022-12-07T09:34:35;5.00;99.90
32614;DHT22;19031;51.400;6.770;2022-12-07T09:37:01;5.20;99.90
32614;DHT22;19031;51.400;6.770;2022-12-07T09:39:28;5.10;99.90
32614;DHT22;19031;51.400;6.770;2022-12-07T09:41:53;5.30;99.90
32614;DHT22;19031;51.400;6.770;2022-12-07T09:44:23;5.40;99.90
32614;DHT22;19031;51.400;6.770;2022-12-07T09:46:49;5.50;99.90
32614;DHT22;19031;51.400;6.770;2022-12-07T09:49:22;5.40;99.90
32614;DHT22;19031;51.400;6.770;2022-12-07T09:51:59;5.30;99.90
32614;DHT22;19031;51.400;6.770;2022-12-07T09:54:25;5.30;99.90
32614;DHT22;19031;51.400;6.770;2022-12-07T09:56:51;5.30;99.90
32614;DHT22;19031;51.400;6.770;2022-12-07T09:59:17;5.30;99.90
32614;DHT22;19031;51.400;6.770;2022-12-07T10:01:43;5.20;99.90
32614;DHT22;19031;51.400;6.770;2022-12-07T10:04:11;5.30;99.90
32614;DHT22;19031;51.400;6.770;2022-12-07T10:06:38;5.30;99.90
32614;DHT22;19031;51.400;6.770;2022-12-07T10:09:10;5.30;99.90
32614;DHT22;19031;51.400;6.770;2022-12-07T10:11:57;5.30;99.90
32614;DHT22;19031;51.400;6.770;2022-12-07T10:14:21;5.50;99.90
32614;DHT22;19031;51.400;6.770;2022-12-07T10:16:47;6.10;99.90
32614;DHT22;19031;51.400;6.770;2022-12-07T10:22:15;7.60;99.90
32614;DHT22;19031;51.400;6.770;2022-12-07T10:24:42;7.60;99.90
32614;DHT22;19031;51.400;6.770;2022-12-07T10:27:21;7.40;99.90
32614;DHT22;19031;51.400;6.770;2022-12-07T10:29:48;7.20;99.90
32614;DHT22;19031;51.400;6.770;2022-12-07T10:34:40;7.30;99.90
32614;DHT22;19031;51.400;6.770;2022-12-07T10:37:13;7.40;99.90
32614;DHT22;19031;51.400;6.770;2022-12-07T10:39:46;7.60;99.90
32614;DHT22;19031;51.400;6.770;2022-12-07T10:44:50;7.40;99.90
32614;DHT22;19031;51.400;6.770;2022-12-07T11:00:37;7.00;99.90
32614;DHT22;19031;51.400;6.770;2022-12-07T11:05:42;7.10;99.90
32614;DHT22;19031;51.400;6.770;2022-12-07T11:10:59;7.00;99.90
32614;DHT22;19031;51.400;6.770;2022-12-07T11:13:29;6.80;99.90
32614;DHT22;19031;51.400;6.770;2022-12-07T11:19:31;6.80;99.90
32614;DHT22;19031;51.400;6.770;2022-12-07T11:34:15;7.10;99.90
32614;DHT22;19031;51.400;6.770;2022-12-07T11:36:46;7.10;99.90
32614;DHT22;19031;51.400;6.770;2022-12-07T11:39:25;7.10;99.90
32614;DHT22;19031;51.400;6.770;2022-12-07T11:41:52;7.10;99.90
32614;DHT22;19031;51.400;6.770;2022-12-07T11:49:49;7.10;99.90
32614;DHT22;19031;51.400;6.770;2022-12-07T11:52:22;7.10;99.90
32614;DHT22;19031;51.400;6.770;2022-12-07T11:54:51;7.10;99.90
32614;DHT22;19031;51.400;6.770;2022-12-07T11:57:20;7.10;99.90
32614;DHT22;19031;51.400;6.770;2022-12-07T11:59:49;7.10;99.90
32614;DHT22;19031;51.400;6.770;2022-12-07T12:02:18;7.10;99.90
32614;DHT22;19031;51.400;6.770;2022-12-07T12:04:58;7.00;99.90
32614;DHT22;19031;51.400;6.770;2022-12-07T12:07:24;6.90;99.90
32614;DHT22;19031;51.400;6.770;2022-12-07T12:09:52;6.90;99.90
32614;DHT22;19031;51.400;6.770;2022-12-07T12:22:42;7.00;99.90
32614;DHT22;19031;51.400;6.770;2022-12-07T12:28:00;7.00;99.90
32614;DHT22;19031;51.400;6.770;2022-12-07T12:30:34;7.10;99.90
32614;DHT22;19031;51.400;6.770;2022-12-07T12:33:04;7.10;99.90
32614;DHT22;19031;51.400;6.770;2022-12-07T12:35:31;7.00;99.90
32614;DHT22;19031;51.400;6.770;2022-12-07T12:40:42;7.20;99.90
32614;DHT22;19031;51.400;6.770;2022-12-07T12:43:39;7.10;99.90
32614;DHT22;19031;51.400;6.770;2022-12-07T12:46:34;7.00;99.90
32614;DHT22;19031;51.400;6.770;2022-12-07T12:48:38;6.80;99.90
32614;DHT22;19031;51.400;6.770;2022-12-07T12:53:48;6.70;99.90
32614;DHT22;19031;51.400;6.770;2022-12-07T12:56:33;6.70;99.90
32614;DHT22;19031;51.400;6.770;2022-12-07T12:59:18;6.80;99.90
32614;DHT22;19031;51.400;6.770;2022-12-07T13:01:48;6.80;99.90
32614;DHT22;19031;51.400;6.770;2022-12-07T13:04:17;6.80;99.90
32614;DHT22;19031;51.400;6.770;2022-12-07T13:06:43;6.90;99.90
32614;DHT22;19031;51.400;6.770;2022-12-07T13:09:17;6.80;99.90
32614;DHT22;19031;51.400;6.770;2022-12-07T13:11:44;6.80;99.90
32614;DHT22;19031;51.400;6.770;2022-12-07T13:16:54;6.80;99.90
32614;DHT22;19031;51.400;6.770;2022-12-07T13:22:26;6.90;99.90
32614;DHT22;19031;51.400;6.770;2022-12-07T13:24:49;7.00;99.90
32614;DHT22;19031;51.400;6.770;2022-12-07T13:27:19;7.00;99.90
32614;DHT22;19031;51.400;6.770;2022-12-07T13:29:45;7.00;99.90
32614;DHT22;19031;51.400;6.770;2022-12-07T13:32:25;7.00;99.90
32614;DHT22;19031;51.400;6.770;2022-12-07T13:34:51;7.10;99.90
32614;DHT22;19031;51.400;6.770;2022-12-07T13:37:32;7.10;99.90
32614;DHT22;19031;51.400;6.770;2022-12-07T13:42:43;6.90;99.90
32614;DHT22;19031;51.400;6.770;2022-12-07T13:47:53;7.00;99.90
32614;DHT22;19031;51.400;6.770;2022-12-07T13:50:24;7.00;99.90
32614;DHT22;19031;51.400;6.770;2022-12-07T13:52:50;7.00;99.90
32614;DHT22;19031;51.400;6.770;2022-12-07T13:55:19;7.00;99.90
32614;DHT22;19031;51.400;6.770;2022-12-07T13:57:46;6.90;99.90
32614;DHT22;19031;51.400;6.770;2022-12-07T14:00:15;6.80;99.90
32614;DHT22;19031;51.400;6.770;2022-12-07T14:02:58;6.90;99.90
32614;DHT22;19031;51.400;6.770;2022-12-07T14:05:28;6.90;99.90
32614;DHT22;19031;51.400;6.770;2022-12-07T14:07:55;6.90;99.90
32614;DHT22;19031;51.400;6.770;2022-12-07T14:12:49;6.80;99.90
32614;DHT22;19031;51.400;6.770;2022-12-07T14:15:23;6.70;99.90
32614;DHT22;19031;51.400;6.770;2022-12-07T14:17:51;6.60;99.90
32614;DHT22;19031;51.400;6.770;2022-12-07T14:22:58;6.50;99.90
32614;DHT22;19031;51.400;6.770;2022-12-07T14:25:25;6.40;99.90
32614;DHT22;19031;51.400;6.770;2022-12-07T14:28:00;6.30;99.90
32614;DHT22;19031;51.400;6.770;2022-12-07T14:30:27;6.20;99.90
32614;DHT22;19031;51.400;6.770;2022-12-07T14:32:55;6.20;99.90
32614;DHT22;19031;51.400;6.770;2022-12-07T14:35:22;6.20;99.90
32614;DHT22;19031;51.400;6.770;2022-12-07T14:37:48;6.00;99.90
32614;DHT22;19031;51.400;6.770;2022-12-07T14:40:21;6.10;99.90
32614;DHT22;19031;51.400;6.770;2022-12-07T14:42:47;6.00;99.90
32614;DHT22;19031;51.400;6.770;2022-12-07T14:45:18;6.00;99.90
32614;DHT22;19031;51.400;6.770;2022-12-07T14:47:44;6.00;99.90
32614;DHT22;19031;51.400;6.770;2022-12-07T14:50:13;5.80;99.90
32614;DHT22;19031;51.400;6.770;2022-12-07T14:52:39;5.80;99.90
32614;DHT22;19031;51.400;6.770;2022-12-07T14:55:11;5.90;99.90
32614;DHT22;19031;51.400;6.770;2022-12-07T14:57:37;5.80;99.90
32614;DHT22;19031;51.400;6.770;2022-12-07T15:00:03;5.80;99.90
32614;DHT22;19031;51.400;6.770;2022-12-07T15:02:29;5.70;99.90
32614;DHT22;19031;51.400;6.770;2022-12-07T15:04:54;5.60;99.90
32614;DHT22;19031;51.400;6.770;2022-12-07T15:07:20;5.50;99.90
32614;DHT22;19031;51.400;6.770;2022-12-07T15:09:47;5.60;99.90
32614;DHT22;19031;51.400;6.770;2022-12-07T15:12:12;5.30;99.90
32614;DHT22;19031;51.400;6.770;2022-12-07T15:14:38;5.40;99.90
32614;DHT22;19031;51.400;6.770;2022-12-07T15:17:03;5.30;99.90
32614;DHT22;19031;51.400;6.770;2022-12-07T15:19:29;5.30;99.90
32614;DHT22;19031;51.400;6.770;2022-12-07T15:21:54;5.20;99.90
32614;DHT22;19031;51.400;6.770;2022-12-07T15:24:20;5.10;99.90
32614;DHT22;19031;51.400;6.770;2022-12-07T15:26:46;5.10;99.90
32614;DHT22;19031;51.400;6.770;2022-12-07T15:29:12;5.10;99.90
32614;DHT22;19031;51.400;6.770;2022-12-07T15:31:39;5.00;99.90
32614;DHT22;19031;51.400;6.770;2022-12-07T15:34:05;5.10;99.90
32614;DHT22;19031;51.400;6.770;2022-12-07T15:36:31;5.10;99.90
32614;DHT22;19031;51.400;6.770;2022-12-07T15:38:57;5.00;99.90
32614;DHT22;19031;51.400;6.770;2022-12-07T15:41:22;5.00;99.90
32614;DHT22;19031;51.400;6.770;2022-12-07T15:43:48;5.10;99.90
32614;DHT22;19031;51.400;6.770;2022-12-07T15:46:33;5.10;99.90
32614;DHT22;19031;51.400;6.770;2022-12-07T15:48:59;5.00;99.90
32614;DHT22;19031;51.400;6.770;2022-12-07T15:51:25;5.10;99.90
32614;DHT22;19031;51.400;6.770;2022-12-07T15:53:51;5.10;99.90
32614;DHT22;19031;51.400;6.770;2022-12-07T15:56:16;5.10;99.90
32614;DHT22;19031;51.400;6.770;2022-12-07T15:58:42;5.20;99.90
32614;DHT22;19031;51.400;6.770;2022-12-07T16:01:14;5.10;99.90
32614;DHT22;19031;51.400;6.770;2022-12-07T16:03:40;5.20;99.90
32614;DHT22;19031;51.400;6.770;2022-12-07T16:06:06;5.20;99.90
32614;DHT22;19031;51.400;6.770;2022-12-07T16:08:31;5.20;99.90
32614;DHT22;19031;51.400;6.770;2022-12-07T16:10:57;5.30;99.90
32614;DHT22;19031;51.400;6.770;2022-12-07T16:13:22;5.30;99.90
32614;DHT22;19031;51.400;6.770;2022-12-07T16:15:48;5.30;99.90
32614;DHT22;19031;51.400;6.770;2022-12-07T16:18:13;5.40;99.90
32614;DHT22;19031;51.400;6.770;2022-12-07T16:20:39;5.30;99.90
32614;DHT22;19031;51.400;6.770;2022-12-07T16:23:05;5.40;99.90
32614;DHT22;19031;51.400;6.770;2022-12-07T16:25:30;5.40;99.90
32614;DHT22;19031;51.400;6.770;2022-12-07T16:27:56;5.40;99.90
32614;DHT22;19031;51.400;6.770;2022-12-07T16:30:21;5.50;99.90
32614;DHT22;19031;51.400;6.770;2022-12-07T16:32:47;5.40;99.90
32614;DHT22;19031;51.400;6.770;2022-12-07T16:35:12;5.30;99.90
32614;DHT22;19031;51.400;6.770;2022-12-07T16:37:38;5.40;99.90
32614;DHT22;19031;51.400;6.770;2022-12-07T16:40:04;5.40;99.90
32614;DHT22;19031;51.400;6.770;2022-12-07T16:42:33;5.40;99.90
32614;DHT22;19031;51.400;6.770;2022-12-07T16:44:59;5.40;99.90
32614;DHT22;19031;51.400;6.770;2022-12-07T16:47:25;5.40;99.90
32614;DHT22;19031;51.400;6.770;2022-12-07T16:49:51;5.40;99.90
32614;DHT22;19031;51.400;6.770;2022-12-07T16:52:17;5.40;99.90
32614;DHT22;19031;51.400;6.770;2022-12-07T16:54:43;5.50;99.90
32614;DHT22;19031;51.400;6.770;2022-12-07T16:57:09;5.40;99.90
32614;DHT22;19031;51.400;6.770;2022-12-07T16:59:34;5.40;99.90
32614;DHT22;19031;51.400;6.770;2022-12-07T17:02:00;5.40;99.90
32614;DHT22;19031;51.400;6.770;2022-12-07T17:04:25;5.40;99.90
32614;DHT22;19031;51.400;6.770;2022-12-07T17:06:50;5.40;99.90
32614;DHT22;19031;51.400;6.770;2022-12-07T17:09:16;5.40;99.90
32614;DHT22;19031;51.400;6.770;2022-12-07T17:11:43;5.50;99.90
32614;DHT22;19031;51.400;6.770;2022-12-07T17:14:08;5.40;99.90
32614;DHT22;19031;51.400;6.770;2022-12-07T17:16:53;5.60;99.90
32614;DHT22;19031;51.400;6.770;2022-12-07T17:19:18;5.50;99.90
32614;DHT22;19031;51.400;6.770;2022-12-07T17:21:44;5.40;99.90
32614;DHT22;19031;51.400;6.770;2022-12-07T17:24:10;5.40;99.90
32614;DHT22;19031;51.400;6.770;2022-12-07T17:26:36;5.40;99.90
32614;DHT22;19031;51.400;6.770;2022-12-07T17:29:03;5.50;99.90
32614;DHT22;19031;51.400;6.770;2022-12-07T17:31:28;5.40;99.90
32614;DHT22;19031;51.400;6.770;2022-12-07T17:33:54;5.50;99.90
32614;DHT22;19031;51.400;6.770;2022-12-07T17:36:20;5.40;99.90
32614;DHT22;19031;51.400;6.770;2022-12-07T17:38:46;5.40;99.90
32614;DHT22;19031;51.400;6.770;2022-12-07T17:41:16;5.30;99.90
32614;DHT22;19031;51.400;6.770;2022-12-07T17:44:02;5.40;99.90
32614;DHT22;19031;51.400;6.770;2022-12-07T17:46:28;5.40;99.90
32614;DHT22;19031;51.400;6.770;2022-12-07T17:48:54;5.40;99.90
32614;DHT22;19031;51.400;6.770;2022-12-07T17:51:20;5.30;99.90
32614;DHT22;19031;51.400;6.770;2022-12-07T17:54:04;5.40;99.90
32614;DHT22;19031;51.400;6.770;2022-12-07T17:56:29;5.30;99.90
32614;DHT22;19031;51.400;6.770;2022-12-07T17:58:54;5.30;99.90
32614;DHT22;19031;51.400;6.770;2022-12-07T18:01:20;5.30;99.90
32614;DHT22;19031;51.400;6.770;2022-12-07T18:03:45;5.40;99.90
32614;DHT22;19031;51.400;6.770;2022-12-07T18:06:11;5.40;99.90